sensor_id;sensor_type;location;lat;lon;timestamp;temperature;humidity
40952;DHT22;26682;51.660;19.338;2023-05-10T00:01:45;7.40;36.30
40952;DHT22;26682;51.660;19.338;2023-05-10T00:04:27;7.40;27.90
40952;DHT22;26682;51.660;19.338;2023-05-10T00:07:09;7.40;18.50
40952;DHT22;26682;51.660;19.338;2023-05-10T00:09:52;7.40;27.50
40952;DHT22;26682;51.660;19.338;2023-05-10T00:12:35;7.40;23.60
40952;DHT22;26682;51.660;19.338;2023-05-10T00:15:17;7.30;21.80
40952;DHT22;26682;51.660;19.338;2023-05-10T00:17:59;7.30;10.60
40952;DHT22;26682;51.660;19.338;2023-05-10T00:20:42;7.30;18.20
40952;DHT22;26682;51.660;19.338;2023-05-10T00:23:24;7.30;21.50
40952;DHT22;26682;51.660;19.338;2023-05-10T00:26:07;7.30;15.10
40952;DHT22;26682;51.660;19.338;2023-05-10T00:28:49;7.30;14.00
40952;DHT22;26682;51.660;19.338;2023-05-10T00:31:32;7.20;5.90
40952;DHT22;26682;51.660;19.338;2023-05-10T00:34:15;7.20;12.60
40952;DHT22;26682;51.660;19.338;2023-05-10T00:36:57;7.30;3.20
40952;DHT22;26682;51.660;19.338;2023-05-10T00:39:40;7.30;1.00
40952;DHT22;26682;51.660;19.338;2023-05-10T00:42:22;7.30;1.00
40952;DHT22;26682;51.660;19.338;2023-05-10T00:45:07;7.30;1.00
40952;DHT22;26682;51.660;19.338;2023-05-10T00:47:51;7.30;1.00
40952;DHT22;26682;51.660;19.338;2023-05-10T00:50:37;7.30;1.00
40952;DHT22;26682;51.660;19.338;2023-05-10T00:53:21;7.30;1.00
40952;DHT22;26682;51.660;19.338;2023-05-10T00:56:03;7.30;1.00
40952;DHT22;26682;51.660;19.338;2023-05-10T00:58:45;7.30;1.00
40952;DHT22;26682;51.660;19.338;2023-05-10T01:01:28;7.30;1.00
40952;DHT22;26682;51.660;19.338;2023-05-10T01:04:12;7.30;1.00
40952;DHT22;26682;51.660;19.338;2023-05-10T01:06:55;7.30;1.00
40952;DHT22;26682;51.660;19.338;2023-05-10T01:09:37;7.30;1.00
40952;DHT22;26682;51.660;19.338;2023-05-10T01:12:20;7.30;1.00
40952;DHT22;26682;51.660;19.338;2023-05-10T01:15:04;7.30;1.00
40952;DHT22;26682;51.660;19.338;2023-05-10T01:17:48;7.30;1.00
40952;DHT22;26682;51.660;19.338;2023-05-10T01:20:36;7.40;1.00
40952;DHT22;26682;51.660;19.338;2023-05-10T01:23:42;7.40;1.00
40952;DHT22;26682;51.660;19.338;2023-05-10T01:33:01;7.30;1.00
40952;DHT22;26682;51.660;19.338;2023-05-10T01:35:51;7.30;1.00
40952;DHT22;26682;51.660;19.338;2023-05-10T01:38:50;7.20;1.00
40952;DHT22;26682;51.660;19.338;2023-05-10T01:41:54;7.20;1.00
40952;DHT22;26682;51.660;19.338;2023-05-10T01:48:06;7.10;1.00
40952;DHT22;26682;51.660;19.338;2023-05-10T01:50:50;7.10;1.00
40952;DHT22;26682;51.660;19.338;2023-05-10T01:53:35;7.00;1.00
40952;DHT22;26682;51.660;19.338;2023-05-10T01:56:22;7.00;1.00
40952;DHT22;26682;51.660;19.338;2023-05-10T01:59:11;7.00;1.00
40952;DHT22;26682;51.660;19.338;2023-05-10T02:01:58;7.00;1.00
40952;DHT22;26682;51.660;19.338;2023-05-10T02:04:42;7.00;1.00
40952;DHT22;26682;51.660;19.338;2023-05-10T02:07:27;7.00;1.00
40952;DHT22;26682;51.660;19.338;2023-05-10T02:10:11;6.90;1.00
40952;DHT22;26682;51.660;19.338;2023-05-10T02:12:55;6.90;1.00
40952;DHT22;26682;51.660;19.338;2023-05-10T02:15:41;6.90;1.00
40952;DHT22;26682;51.660;19.338;2023-05-10T02:18:27;6.80;1.00
40952;DHT22;26682;51.660;19.338;2023-05-10T02:21:11;6.80;1.00
40952;DHT22;26682;51.660;19.338;2023-05-10T02:23:54;6.80;1.00
40952;DHT22;26682;51.660;19.338;2023-05-10T02:26:38;6.70;1.00
40952;DHT22;26682;51.660;19.338;2023-05-10T02:29:21;6.70;1.00
40952;DHT22;26682;51.660;19.338;2023-05-10T02:32:06;6.70;1.00
40952;DHT22;26682;51.660;19.338;2023-05-10T02:34:48;6.70;1.00
40952;DHT22;26682;51.660;19.338;2023-05-10T02:37:36;6.70;1.00
40952;DHT22;26682;51.660;19.338;2023-05-10T02:40:20;6.70;1.00
40952;DHT22;26682;51.660;19.338;2023-05-10T02:43:04;6.70;1.00
40952;DHT22;26682;51.660;19.338;2023-05-10T02:45:48;6.60;1.00
40952;DHT22;26682;51.660;19.338;2023-05-10T02:48:31;6.60;1.00
40952;DHT22;26682;51.660;19.338;2023-05-10T02:51:15;6.70;1.00
40952;DHT22;26682;51.660;19.338;2023-05-10T02:54:13;6.60;1.00
40952;DHT22;26682;51.660;19.338;2023-05-10T02:56:58;6.60;1.00
40952;DHT22;26682;51.660;19.338;2023-05-10T02:59:45;6.60;1.00
40952;DHT22;26682;51.660;19.338;2023-05-10T03:02:28;6.60;1.00
40952;DHT22;26682;51.660;19.338;2023-05-10T03:05:13;6.60;1.00
40952;DHT22;26682;51.660;19.338;2023-05-10T03:07:55;6.50;1.00
40952;DHT22;26682;51.660;19.338;2023-05-10T03:11:03;6.50;1.00
40952;DHT22;26682;51.660;19.338;2023-05-10T03:17:35;6.50;1.00
40952;DHT22;26682;51.660;19.338;2023-05-10T03:20:31;6.50;1.00
40952;DHT22;26682;51.660;19.338;2023-05-10T03:23:50;6.50;1.00
40952;DHT22;26682;51.660;19.338;2023-05-10T03:26:34;6.50;1.00
40952;DHT22;26682;51.660;19.338;2023-05-10T03:29:25;6.60;1.00
40952;DHT22;26682;51.660;19.338;2023-05-10T03:32:08;6.70;1.00
40952;DHT22;26682;51.660;19.338;2023-05-10T03:34:50;6.80;1.00
40952;DHT22;26682;51.660;19.338;2023-05-10T03:37:34;6.80;1.00
40952;DHT22;26682;51.660;19.338;2023-05-10T03:40:17;6.90;1.00
40952;DHT22;26682;51.660;19.338;2023-05-10T03:42:59;7.10;1.00
40952;DHT22;26682;51.660;19.338;2023-05-10T03:45:42;7.30;1.00
40952;DHT22;26682;51.660;19.338;2023-05-10T03:48:25;7.40;1.00
40952;DHT22;26682;51.660;19.338;2023-05-10T03:51:07;7.50;1.00
40952;DHT22;26682;51.660;19.338;2023-05-10T03:53:50;7.70;1.00
40952;DHT22;26682;51.660;19.338;2023-05-10T03:56:32;7.80;1.00
40952;DHT22;26682;51.660;19.338;2023-05-10T03:59:15;7.90;1.00
40952;DHT22;26682;51.660;19.338;2023-05-10T04:01:57;8.00;1.00
40952;DHT22;26682;51.660;19.338;2023-05-10T04:04:40;8.10;1.00
40952;DHT22;26682;51.660;19.338;2023-05-10T04:07:22;8.10;1.00
40952;DHT22;26682;51.660;19.338;2023-05-10T04:10:05;8.20;1.00
40952;DHT22;26682;51.660;19.338;2023-05-10T04:12:48;8.20;1.00
40952;DHT22;26682;51.660;19.338;2023-05-10T04:15:31;8.20;1.00
40952;DHT22;26682;51.660;19.338;2023-05-10T04:18:14;8.30;1.00
40952;DHT22;26682;51.660;19.338;2023-05-10T04:20:56;8.30;1.00
40952;DHT22;26682;51.660;19.338;2023-05-10T04:23:39;8.40;1.00
40952;DHT22;26682;51.660;19.338;2023-05-10T04:26:21;8.50;1.00
40952;DHT22;26682;51.660;19.338;2023-05-10T04:29:04;8.60;1.00
40952;DHT22;26682;51.660;19.338;2023-05-10T04:31:46;8.60;1.00
40952;DHT22;26682;51.660;19.338;2023-05-10T04:34:29;8.70;1.00
40952;DHT22;26682;51.660;19.338;2023-05-10T04:37:11;8.80;1.00
40952;DHT22;26682;51.660;19.338;2023-05-10T04:39:54;8.90;1.00
40952;DHT22;26682;51.660;19.338;2023-05-10T04:42:36;9.00;1.00
40952;DHT22;26682;51.660;19.338;2023-05-10T04:45:19;9.30;1.00
40952;DHT22;26682;51.660;19.338;2023-05-10T04:48:02;9.50;1.00
40952;DHT22;26682;51.660;19.338;2023-05-10T04:50:44;9.80;1.00
40952;DHT22;26682;51.660;19.338;2023-05-10T04:53:26;10.20;1.00
40952;DHT22;26682;51.660;19.338;2023-05-10T04:56:09;10.70;1.00
40952;DHT22;26682;51.660;19.338;2023-05-10T04:58:52;11.10;1.00
40952;DHT22;26682;51.660;19.338;2023-05-10T05:01:34;11.50;1.00
40952;DHT22;26682;51.660;19.338;2023-05-10T05:04:17;11.90;1.00
40952;DHT22;26682;51.660;19.338;2023-05-10T05:07:00;12.10;2.30
40952;DHT22;26682;51.660;19.338;2023-05-10T05:09:42;12.20;1.00
40952;DHT22;26682;51.660;19.338;2023-05-10T05:12:25;12.50;5.00
40952;DHT22;26682;51.660;19.338;2023-05-10T05:15:07;12.60;7.20
40952;DHT22;26682;51.660;19.338;2023-05-10T05:17:53;13.00;1.60
40952;DHT22;26682;51.660;19.338;2023-05-10T05:20:36;13.10;1.00
40952;DHT22;26682;51.660;19.338;2023-05-10T05:23:18;13.20;1.00
40952;DHT22;26682;51.660;19.338;2023-05-10T05:26:02;13.00;1.00
40952;DHT22;26682;51.660;19.338;2023-05-10T05:28:45;13.50;4.50
40952;DHT22;26682;51.660;19.338;2023-05-10T05:31:27;13.70;1.00
40952;DHT22;26682;51.660;19.338;2023-05-10T05:34:10;13.70;1.00
40952;DHT22;26682;51.660;19.338;2023-05-10T05:36:52;14.00;1.00
40952;DHT22;26682;51.660;19.338;2023-05-10T05:39:36;14.00;9.70
40952;DHT22;26682;51.660;19.338;2023-05-10T05:42:18;14.00;1.00
40952;DHT22;26682;51.660;19.338;2023-05-10T05:45:01;13.90;1.00
40952;DHT22;26682;51.660;19.338;2023-05-10T05:47:43;14.10;1.00
40952;DHT22;26682;51.660;19.338;2023-05-10T05:50:25;14.10;1.00
40952;DHT22;26682;51.660;19.338;2023-05-10T05:53:09;14.20;1.00
40952;DHT22;26682;51.660;19.338;2023-05-10T05:55:56;14.20;1.00
40952;DHT22;26682;51.660;19.338;2023-05-10T05:58:39;14.30;2.70
40952;DHT22;26682;51.660;19.338;2023-05-10T06:01:21;14.50;1.10
40952;DHT22;26682;51.660;19.338;2023-05-10T06:04:04;14.60;2.90
40952;DHT22;26682;51.660;19.338;2023-05-10T06:06:46;14.60;1.00
40952;DHT22;26682;51.660;19.338;2023-05-10T06:09:29;14.80;9.10
40952;DHT22;26682;51.660;19.338;2023-05-10T06:12:12;15.10;6.80
40952;DHT22;26682;51.660;19.338;2023-05-10T06:14:55;15.20;4.10
40952;DHT22;26682;51.660;19.338;2023-05-10T06:17:38;15.20;10.90
40952;DHT22;26682;51.660;19.338;2023-05-10T06:20:21;15.40;14.90
40952;DHT22;26682;51.660;19.338;2023-05-10T06:23:04;15.60;9.60
40952;DHT22;26682;51.660;19.338;2023-05-10T06:25:46;15.60;18.70
40952;DHT22;26682;51.660;19.338;2023-05-10T06:28:28;15.70;18.30
40952;DHT22;26682;51.660;19.338;2023-05-10T06:31:13;15.60;18.90
40952;DHT22;26682;51.660;19.338;2023-05-10T06:33:56;15.70;26.70
40952;DHT22;26682;51.660;19.338;2023-05-10T06:36:39;15.80;13.50
40952;DHT22;26682;51.660;19.338;2023-05-10T06:39:22;15.90;15.90
40952;DHT22;26682;51.660;19.338;2023-05-10T06:42:04;15.60;6.10
40952;DHT22;26682;51.660;19.338;2023-05-10T06:44:47;15.60;10.20
40952;DHT22;26682;51.660;19.338;2023-05-10T06:47:30;15.60;1.00
40952;DHT22;26682;51.660;19.338;2023-05-10T06:50:12;15.80;1.00
40952;DHT22;26682;51.660;19.338;2023-05-10T06:52:55;15.70;13.70
40952;DHT22;26682;51.660;19.338;2023-05-10T06:55:37;15.80;1.00
40952;DHT22;26682;51.660;19.338;2023-05-10T06:58:20;15.80;1.00
40952;DHT22;26682;51.660;19.338;2023-05-10T07:01:03;15.90;16.60
40952;DHT22;26682;51.660;19.338;2023-05-10T07:03:47;16.00;11.70
40952;DHT22;26682;51.660;19.338;2023-05-10T07:06:29;16.20;26.70
40952;DHT22;26682;51.660;19.338;2023-05-10T07:09:15;16.20;20.10
40952;DHT22;26682;51.660;19.338;2023-05-10T07:11:57;16.20;35.70
40952;DHT22;26682;51.660;19.338;2023-05-10T07:14:40;16.50;34.30
40952;DHT22;26682;51.660;19.338;2023-05-10T07:17:22;16.70;39.10
40952;DHT22;26682;51.660;19.338;2023-05-10T07:20:06;16.90;33.10
40952;DHT22;26682;51.660;19.338;2023-05-10T07:22:48;17.00;29.90
40952;DHT22;26682;51.660;19.338;2023-05-10T07:25:31;16.90;39.50
40952;DHT22;26682;51.660;19.338;2023-05-10T07:28:16;16.70;27.50
40952;DHT22;26682;51.660;19.338;2023-05-10T07:30:58;16.50;18.90
40952;DHT22;26682;51.660;19.338;2023-05-10T07:33:41;16.10;12.80
40952;DHT22;26682;51.660;19.338;2023-05-10T07:36:23;16.10;9.00
40952;DHT22;26682;51.660;19.338;2023-05-10T07:39:06;16.10;1.60
40952;DHT22;26682;51.660;19.338;2023-05-10T07:41:49;16.30;2.40
40952;DHT22;26682;51.660;19.338;2023-05-10T07:44:31;16.40;1.10
40952;DHT22;26682;51.660;19.338;2023-05-10T07:47:14;16.50;3.50
40952;DHT22;26682;51.660;19.338;2023-05-10T07:49:56;16.50;4.20
40952;DHT22;26682;51.660;19.338;2023-05-10T07:52:39;16.70;12.30
40952;DHT22;26682;51.660;19.338;2023-05-10T07:55:21;16.40;1.50
40952;DHT22;26682;51.660;19.338;2023-05-10T07:58:04;16.60;9.10
40952;DHT22;26682;51.660;19.338;2023-05-10T08:00:46;16.80;10.80
40952;DHT22;26682;51.660;19.338;2023-05-10T08:03:29;17.00;8.70
40952;DHT22;26682;51.660;19.338;2023-05-10T08:06:11;16.90;14.60
40952;DHT22;26682;51.660;19.338;2023-05-10T08:08:54;17.00;8.60
40952;DHT22;26682;51.660;19.338;2023-05-10T08:11:37;17.00;24.10
40952;DHT22;26682;51.660;19.338;2023-05-10T08:14:20;17.10;13.40
40952;DHT22;26682;51.660;19.338;2023-05-10T08:17:03;17.10;11.90
40952;DHT22;26682;51.660;19.338;2023-05-10T08:19:46;17.10;3.40
40952;DHT22;26682;51.660;19.338;2023-05-10T08:22:28;17.20;16.00
40952;DHT22;26682;51.660;19.338;2023-05-10T08:25:11;17.20;12.90
40952;DHT22;26682;51.660;19.338;2023-05-10T08:27:53;17.30;17.40
40952;DHT22;26682;51.660;19.338;2023-05-10T08:30:36;17.50;20.80
40952;DHT22;26682;51.660;19.338;2023-05-10T08:33:18;17.40;18.30
40952;DHT22;26682;51.660;19.338;2023-05-10T08:36:01;17.40;15.00
40952;DHT22;26682;51.660;19.338;2023-05-10T08:38:43;17.50;4.20
40952;DHT22;26682;51.660;19.338;2023-05-10T08:41:26;17.50;13.90
40952;DHT22;26682;51.660;19.338;2023-05-10T08:44:09;17.60;12.20
40952;DHT22;26682;51.660;19.338;2023-05-10T08:46:54;17.80;1.00
40952;DHT22;26682;51.660;19.338;2023-05-10T08:49:37;17.90;13.10
40952;DHT22;26682;51.660;19.338;2023-05-10T08:52:21;17.60;13.10
40952;DHT22;26682;51.660;19.338;2023-05-10T08:55:04;17.60;22.90
40952;DHT22;26682;51.660;19.338;2023-05-10T08:57:47;17.50;9.40
40952;DHT22;26682;51.660;19.338;2023-05-10T09:00:29;17.30;7.00
40952;DHT22;26682;51.660;19.338;2023-05-10T09:03:13;17.40;6.50
40952;DHT22;26682;51.660;19.338;2023-05-10T09:05:55;17.40;7.00
40952;DHT22;26682;51.660;19.338;2023-05-10T09:08:39;17.60;14.10
40952;DHT22;26682;51.660;19.338;2023-05-10T09:11:22;17.70;25.40
40952;DHT22;26682;51.660;19.338;2023-05-10T09:14:05;17.70;12.20
40952;DHT22;26682;51.660;19.338;2023-05-10T09:16:47;17.60;2.90
40952;DHT22;26682;51.660;19.338;2023-05-10T09:19:30;17.50;1.40
40952;DHT22;26682;51.660;19.338;2023-05-10T09:22:12;17.50;4.30
40952;DHT22;26682;51.660;19.338;2023-05-10T09:27:52;17.60;12.10
40952;DHT22;26682;51.660;19.338;2023-05-10T09:30:35;17.50;8.30
40952;DHT22;26682;51.660;19.338;2023-05-10T09:33:18;17.50;4.80
40952;DHT22;26682;51.660;19.338;2023-05-10T09:36:07;17.60;4.10
40952;DHT22;26682;51.660;19.338;2023-05-10T09:38:51;17.70;1.00
40952;DHT22;26682;51.660;19.338;2023-05-10T09:41:35;17.90;1.00
40952;DHT22;26682;51.660;19.338;2023-05-10T09:44:17;17.80;1.00
40952;DHT22;26682;51.660;19.338;2023-05-10T09:47:02;17.80;1.00
40952;DHT22;26682;51.660;19.338;2023-05-10T09:49:49;17.80;1.00
40952;DHT22;26682;51.660;19.338;2023-05-10T09:52:53;17.60;1.00
40952;DHT22;26682;51.660;19.338;2023-05-10T09:55:39;17.70;1.00
40952;DHT22;26682;51.660;19.338;2023-05-10T09:58:22;17.80;1.00
40952;DHT22;26682;51.660;19.338;2023-05-10T10:01:10;18.00;1.00
40952;DHT22;26682;51.660;19.338;2023-05-10T10:03:54;18.10;1.00
40952;DHT22;26682;51.660;19.338;2023-05-10T10:06:40;18.00;1.00
40952;DHT22;26682;51.660;19.338;2023-05-10T10:09:23;17.90;1.00
40952;DHT22;26682;51.660;19.338;2023-05-10T10:12:06;17.90;1.00
40952;DHT22;26682;51.660;19.338;2023-05-10T10:14:48;17.80;1.00
40952;DHT22;26682;51.660;19.338;2023-05-10T10:17:32;17.90;1.00
40952;DHT22;26682;51.660;19.338;2023-05-10T10:20:19;17.90;1.00
40952;DHT22;26682;51.660;19.338;2023-05-10T10:23:02;18.20;1.00
40952;DHT22;26682;51.660;19.338;2023-05-10T10:25:45;18.30;1.00
40952;DHT22;26682;51.660;19.338;2023-05-10T10:31:47;18.10;1.00
40952;DHT22;26682;51.660;19.338;2023-05-10T10:34:33;18.30;1.00
40952;DHT22;26682;51.660;19.338;2023-05-10T10:37:16;18.40;1.00
40952;DHT22;26682;51.660;19.338;2023-05-10T10:39:58;18.60;1.00
40952;DHT22;26682;51.660;19.338;2023-05-10T10:42:44;18.80;1.00
40952;DHT22;26682;51.660;19.338;2023-05-10T10:45:28;18.60;1.00
40952;DHT22;26682;51.660;19.338;2023-05-10T10:48:23;18.50;1.00
40952;DHT22;26682;51.660;19.338;2023-05-10T10:51:06;18.40;1.00
40952;DHT22;26682;51.660;19.338;2023-05-10T10:53:48;18.30;1.00
40952;DHT22;26682;51.660;19.338;2023-05-10T10:56:31;18.20;1.00
40952;DHT22;26682;51.660;19.338;2023-05-10T10:59:26;18.40;1.00
40952;DHT22;26682;51.660;19.338;2023-05-10T11:02:10;18.50;1.00
40952;DHT22;26682;51.660;19.338;2023-05-10T11:04:52;18.20;1.00
40952;DHT22;26682;51.660;19.338;2023-05-10T11:07:34;18.00;1.00
40952;DHT22;26682;51.660;19.338;2023-05-10T11:10:23;18.10;1.00
40952;DHT22;26682;51.660;19.338;2023-05-10T11:13:07;18.30;1.00
40952;DHT22;26682;51.660;19.338;2023-05-10T11:15:50;18.40;1.00
40952;DHT22;26682;51.660;19.338;2023-05-10T11:18:33;18.40;1.00
40952;DHT22;26682;51.660;19.338;2023-05-10T11:21:15;18.50;1.70
40952;DHT22;26682;51.660;19.338;2023-05-10T11:23:59;18.50;1.00
40952;DHT22;26682;51.660;19.338;2023-05-10T11:26:42;18.50;1.00
40952;DHT22;26682;51.660;19.338;2023-05-10T11:29:24;18.30;1.00
40952;DHT22;26682;51.660;19.338;2023-05-10T11:32:09;18.20;1.00
40952;DHT22;26682;51.660;19.338;2023-05-10T11:34:51;18.30;1.00
40952;DHT22;26682;51.660;19.338;2023-05-10T11:37:34;18.50;1.00
40952;DHT22;26682;51.660;19.338;2023-05-10T11:40:16;18.40;1.00
40952;DHT22;26682;51.660;19.338;2023-05-10T11:42:59;18.30;1.00
40952;DHT22;26682;51.660;19.338;2023-05-10T11:45:42;18.30;1.00
40952;DHT22;26682;51.660;19.338;2023-05-10T11:48:24;18.20;1.00
40952;DHT22;26682;51.660;19.338;2023-05-10T11:51:10;18.00;1.00
40952;DHT22;26682;51.660;19.338;2023-05-10T11:53:55;18.10;1.00
40952;DHT22;26682;51.660;19.338;2023-05-10T11:56:39;18.20;1.00
40952;DHT22;26682;51.660;19.338;2023-05-10T11:59:22;18.30;1.00
40952;DHT22;26682;51.660;19.338;2023-05-10T12:02:05;18.50;1.00
40952;DHT22;26682;51.660;19.338;2023-05-10T12:04:48;18.80;1.00
40952;DHT22;26682;51.660;19.338;2023-05-10T12:07:31;18.90;1.00
40952;DHT22;26682;51.660;19.338;2023-05-10T12:10:13;18.80;1.00
40952;DHT22;26682;51.660;19.338;2023-05-10T12:13:02;18.60;1.00
40952;DHT22;26682;51.660;19.338;2023-05-10T12:15:45;18.40;1.00
40952;DHT22;26682;51.660;19.338;2023-05-10T12:18:28;18.60;1.00
40952;DHT22;26682;51.660;19.338;2023-05-10T12:21:11;18.60;1.00
40952;DHT22;26682;51.660;19.338;2023-05-10T12:23:58;18.40;1.00
40952;DHT22;26682;51.660;19.338;2023-05-10T12:26:42;18.30;1.00
40952;DHT22;26682;51.660;19.338;2023-05-10T12:29:25;18.40;1.00
40952;DHT22;26682;51.660;19.338;2023-05-10T12:32:07;18.50;1.00
40952;DHT22;26682;51.660;19.338;2023-05-10T12:34:52;18.50;1.00
40952;DHT22;26682;51.660;19.338;2023-05-10T12:37:36;18.40;1.00
40952;DHT22;26682;51.660;19.338;2023-05-10T12:40:21;18.40;1.00
40952;DHT22;26682;51.660;19.338;2023-05-10T12:43:04;18.40;1.00
40952;DHT22;26682;51.660;19.338;2023-05-10T12:45:47;18.50;1.00
40952;DHT22;26682;51.660;19.338;2023-05-10T12:48:31;18.60;1.00
40952;DHT22;26682;51.660;19.338;2023-05-10T12:51:15;18.60;1.00
40952;DHT22;26682;51.660;19.338;2023-05-10T12:54:02;18.70;1.00
40952;DHT22;26682;51.660;19.338;2023-05-10T12:56:45;18.60;1.00
40952;DHT22;26682;51.660;19.338;2023-05-10T12:59:27;18.60;1.00
40952;DHT22;26682;51.660;19.338;2023-05-10T13:02:10;18.60;1.00
40952;DHT22;26682;51.660;19.338;2023-05-10T13:04:53;18.50;1.00
40952;DHT22;26682;51.660;19.338;2023-05-10T13:07:35;18.60;1.00
40952;DHT22;26682;51.660;19.338;2023-05-10T13:10:18;18.60;1.00
40952;DHT22;26682;51.660;19.338;2023-05-10T13:13:01;18.50;1.00
40952;DHT22;26682;51.660;19.338;2023-05-10T13:15:44;18.40;1.00
40952;DHT22;26682;51.660;19.338;2023-05-10T13:18:26;18.30;1.00
40952;DHT22;26682;51.660;19.338;2023-05-10T13:21:09;18.20;1.00
40952;DHT22;26682;51.660;19.338;2023-05-10T13:23:53;18.40;1.00
40952;DHT22;26682;51.660;19.338;2023-05-10T13:26:36;18.30;1.00
40952;DHT22;26682;51.660;19.338;2023-05-10T13:29:18;18.30;1.00
40952;DHT22;26682;51.660;19.338;2023-05-10T13:32:01;18.10;1.00
40952;DHT22;26682;51.660;19.338;2023-05-10T13:34:44;18.10;1.00
40952;DHT22;26682;51.660;19.338;2023-05-10T13:37:26;18.10;1.00
40952;DHT22;26682;51.660;19.338;2023-05-10T13:40:09;18.20;1.00
40952;DHT22;26682;51.660;19.338;2023-05-10T13:42:52;18.40;1.00
40952;DHT22;26682;51.660;19.338;2023-05-10T13:45:35;18.30;1.00
40952;DHT22;26682;51.660;19.338;2023-05-10T13:48:18;18.30;1.00
40952;DHT22;26682;51.660;19.338;2023-05-10T13:51:00;18.30;1.00
40952;DHT22;26682;51.660;19.338;2023-05-10T13:53:42;18.30;1.00
40952;DHT22;26682;51.660;19.338;2023-05-10T13:56:25;18.20;1.00
40952;DHT22;26682;51.660;19.338;2023-05-10T13:59:08;18.30;1.00
40952;DHT22;26682;51.660;19.338;2023-05-10T14:01:50;18.30;1.00
40952;DHT22;26682;51.660;19.338;2023-05-10T14:04:33;18.30;1.00
40952;DHT22;26682;51.660;19.338;2023-05-10T14:07:17;18.40;1.00
40952;DHT22;26682;51.660;19.338;2023-05-10T14:10:00;18.40;1.00
40952;DHT22;26682;51.660;19.338;2023-05-10T14:12:42;18.40;1.00
40952;DHT22;26682;51.660;19.338;2023-05-10T14:15:25;18.30;1.00
40952;DHT22;26682;51.660;19.338;2023-05-10T14:18:07;18.30;1.00
40952;DHT22;26682;51.660;19.338;2023-05-10T14:20:50;18.30;1.00
40952;DHT22;26682;51.660;19.338;2023-05-10T14:23:32;18.30;1.00
40952;DHT22;26682;51.660;19.338;2023-05-10T14:26:15;18.40;1.00
40952;DHT22;26682;51.660;19.338;2023-05-10T14:28:58;18.30;1.00
40952;DHT22;26682;51.660;19.338;2023-05-10T14:31:41;18.30;1.00
40952;DHT22;26682;51.660;19.338;2023-05-10T14:34:23;18.30;1.00
40952;DHT22;26682;51.660;19.338;2023-05-10T14:37:06;18.30;1.00
40952;DHT22;26682;51.660;19.338;2023-05-10T14:39:48;18.30;1.00
40952;DHT22;26682;51.660;19.338;2023-05-10T14:42:31;18.40;1.00
40952;DHT22;26682;51.660;19.338;2023-05-10T14:45:14;18.30;1.00
40952;DHT22;26682;51.660;19.338;2023-05-10T14:47:57;18.20;1.00
40952;DHT22;26682;51.660;19.338;2023-05-10T14:50:40;18.10;1.00
40952;DHT22;26682;51.660;19.338;2023-05-10T14:53:23;18.20;1.00
40952;DHT22;26682;51.660;19.338;2023-05-10T14:56:05;18.10;1.00
40952;DHT22;26682;51.660;19.338;2023-05-10T14:58:49;18.10;1.00
40952;DHT22;26682;51.660;19.338;2023-05-10T15:01:32;18.10;1.00
40952;DHT22;26682;51.660;19.338;2023-05-10T15:04:18;18.20;1.00
40952;DHT22;26682;51.660;19.338;2023-05-10T15:07:01;18.20;1.00
40952;DHT22;26682;51.660;19.338;2023-05-10T15:09:48;18.20;1.00
40952;DHT22;26682;51.660;19.338;2023-05-10T15:12:30;18.10;1.00
40952;DHT22;26682;51.660;19.338;2023-05-10T15:15:13;18.10;1.00
40952;DHT22;26682;51.660;19.338;2023-05-10T15:17:55;18.10;1.00
40952;DHT22;26682;51.660;19.338;2023-05-10T15:20:38;18.00;1.00
40952;DHT22;26682;51.660;19.338;2023-05-10T15:23:20;18.10;1.00
40952;DHT22;26682;51.660;19.338;2023-05-10T15:26:03;18.10;1.00
40952;DHT22;26682;51.660;19.338;2023-05-10T15:28:46;18.10;1.00
40952;DHT22;26682;51.660;19.338;2023-05-10T15:31:28;18.10;1.00
40952;DHT22;26682;51.660;19.338;2023-05-10T15:34:11;18.00;1.00
40952;DHT22;26682;51.660;19.338;2023-05-10T15:36:53;17.90;1.00
40952;DHT22;26682;51.660;19.338;2023-05-10T15:39:36;17.70;1.00
40952;DHT22;26682;51.660;19.338;2023-05-10T15:42:18;17.70;1.00
40952;DHT22;26682;51.660;19.338;2023-05-10T15:45:03;17.70;1.00
40952;DHT22;26682;51.660;19.338;2023-05-10T15:47:47;17.80;1.00
40952;DHT22;26682;51.660;19.338;2023-05-10T15:50:30;17.80;1.00
40952;DHT22;26682;51.660;19.338;2023-05-10T15:53:13;17.70;1.00
40952;DHT22;26682;51.660;19.338;2023-05-10T15:55:55;17.70;1.00
40952;DHT22;26682;51.660;19.338;2023-05-10T15:58:41;17.60;1.00
40952;DHT22;26682;51.660;19.338;2023-05-10T16:01:25;17.50;1.00
40952;DHT22;26682;51.660;19.338;2023-05-10T16:04:09;17.50;1.00
40952;DHT22;26682;51.660;19.338;2023-05-10T16:06:51;17.50;1.00
40952;DHT22;26682;51.660;19.338;2023-05-10T16:09:33;17.50;1.00
40952;DHT22;26682;51.660;19.338;2023-05-10T16:12:15;17.50;1.00
40952;DHT22;26682;51.660;19.338;2023-05-10T16:14:58;17.50;1.00
40952;DHT22;26682;51.660;19.338;2023-05-10T16:17:41;17.50;1.00
40952;DHT22;26682;51.660;19.338;2023-05-10T16:20:24;17.40;1.00
40952;DHT22;26682;51.660;19.338;2023-05-10T16:23:06;17.40;1.00
40952;DHT22;26682;51.660;19.338;2023-05-10T16:25:49;17.40;1.00
40952;DHT22;26682;51.660;19.338;2023-05-10T16:28:32;17.30;1.00
40952;DHT22;26682;51.660;19.338;2023-05-10T16:31:15;17.30;1.00
40952;DHT22;26682;51.660;19.338;2023-05-10T16:33:59;17.20;1.00
40952;DHT22;26682;51.660;19.338;2023-05-10T16:36:42;17.20;1.00
40952;DHT22;26682;51.660;19.338;2023-05-10T16:39:24;17.20;1.00
40952;DHT22;26682;51.660;19.338;2023-05-10T16:42:08;17.10;1.00
40952;DHT22;26682;51.660;19.338;2023-05-10T16:44:50;17.00;1.00
40952;DHT22;26682;51.660;19.338;2023-05-10T16:47:36;17.00;1.00
40952;DHT22;26682;51.660;19.338;2023-05-10T16:50:18;16.90;1.00
40952;DHT22;26682;51.660;19.338;2023-05-10T16:53:01;16.90;1.00
40952;DHT22;26682;51.660;19.338;2023-05-10T16:55:44;16.90;1.00
40952;DHT22;26682;51.660;19.338;2023-05-10T16:58:26;16.80;1.00
40952;DHT22;26682;51.660;19.338;2023-05-10T17:01:09;16.80;1.00
40952;DHT22;26682;51.660;19.338;2023-05-10T17:03:51;16.80;1.00
40952;DHT22;26682;51.660;19.338;2023-05-10T17:06:35;16.80;1.00
40952;DHT22;26682;51.660;19.338;2023-05-10T17:09:18;16.70;1.00
40952;DHT22;26682;51.660;19.338;2023-05-10T17:12:01;16.60;1.00
40952;DHT22;26682;51.660;19.338;2023-05-10T17:14:44;16.50;1.00
40952;DHT22;26682;51.660;19.338;2023-05-10T17:17:27;16.50;1.00
40952;DHT22;26682;51.660;19.338;2023-05-10T17:20:10;16.50;1.00
40952;DHT22;26682;51.660;19.338;2023-05-10T17:22:53;16.50;1.00
40952;DHT22;26682;51.660;19.338;2023-05-10T17:25:35;16.40;1.00
40952;DHT22;26682;51.660;19.338;2023-05-10T17:28:18;16.30;1.00
40952;DHT22;26682;51.660;19.338;2023-05-10T17:31:01;16.30;1.00
40952;DHT22;26682;51.660;19.338;2023-05-10T17:33:43;16.20;1.00
40952;DHT22;26682;51.660;19.338;2023-05-10T17:36:26;16.20;1.00